createdAt,value
2022-11-05T00:02:00.472Z,96214.53
2022-11-05T00:04:30.764Z,96215.63
2022-11-05T00:06:57.455Z,96220.94
2022-11-05T00:09:23.783Z,96219.38
2022-11-05T00:11:50.102Z,96222.06
2022-11-05T00:14:16.418Z,96215.16
2022-11-05T00:16:42.743Z,96225.81
2022-11-05T00:19:09.087Z,96227.22
2022-11-05T00:21:35.418Z,96230.38
2022-11-05T00:24:01.739Z,96233.34
2022-11-05T00:26:28.061Z,96245.59
2022-11-05T00:28:54.393Z,96249.34
2022-11-05T00:31:20.706Z,96249.34
2022-11-05T00:33:47.024Z,96253.91
2022-11-05T00:36:13.344Z,96256.88
2022-11-05T00:38:39.671Z,96259.53
2022-11-05T00:41:06.004Z,96260.63
2022-11-05T00:43:32.350Z,96251.53
2022-11-05T00:45:58.657Z,96271.31
2022-11-05T00:48:24.977Z,96277.44
2022-11-05T00:50:51.301Z,96274.00
2022-11-05T00:53:17.720Z,96268.16
2022-11-05T00:55:44.038Z,96268.16
2022-11-05T00:58:10.377Z,96279.63
2022-11-05T01:00:36.711Z,96276.16
2022-11-05T01:03:03.040Z,96277.75
2022-11-05T01:05:29.363Z,96279.13
2022-11-05T01:07:55.687Z,96281.81
2022-11-05T01:10:22.013Z,96282.59
2022-11-05T01:12:48.335Z,96287.94
2022-11-05T01:15:14.680Z,96281.03
2022-11-05T01:17:40.996Z,96281.03
2022-11-05T01:20:07.318Z,96281.81
2022-11-05T01:22:33.644Z,96279.63
2022-11-05T01:24:59.958Z,96282.59
2022-11-05T01:27:26.285Z,96287.13
2022-11-05T01:29:52.615Z,96282.59
2022-11-05T01:32:18.944Z,96290.59
2022-11-05T01:34:45.276Z,96296.25
2022-11-05T01:37:11.607Z,96296.56
2022-11-05T01:39:37.935Z,96300.78
2022-11-05T01:42:04.267Z,96299.22
2022-11-05T01:44:30.582Z,96295.75
2022-11-05T01:46:56.914Z,96296.84
2022-11-05T01:49:23.226Z,96296.84
2022-11-05T01:51:49.549Z,96312.06
2022-11-05T01:54:15.876Z,96313.66
2022-11-05T01:56:42.195Z,96301.41
2022-11-05T01:59:08.518Z,96305.97
2022-11-05T02:01:34.925Z,96310.50
2022-11-05T02:04:01.277Z,96303.28
2022-11-05T02:06:27.610Z,96312.69
2022-11-05T02:08:53.919Z,96314.28
2022-11-05T02:11:20.252Z,96315.03
2022-11-05T02:13:46.569Z,96320.69
2022-11-05T02:16:12.894Z,96328.69
2022-11-05T02:18:39.218Z,96323.34
2022-11-05T02:21:05.532Z,96334.03
2022-11-05T02:23:31.849Z,96326.31
2022-11-05T02:25:58.163Z,96320.97
2022-11-05T02:28:24.490Z,96331.66
2022-11-05T02:30:50.873Z,96332.44
2022-11-05T02:33:17.268Z,96329.00
2022-11-05T02:35:43.665Z,96332.44
2022-11-05T02:38:10.058Z,96332.75
2022-11-05T02:40:36.461Z,96331.97
2022-11-05T02:43:02.871Z,96334.63
2022-11-05T02:45:29.260Z,96334.63
2022-11-05T02:47:55.662Z,96335.72
2022-11-05T02:50:22.070Z,96338.41
2022-11-05T02:52:49.634Z,96343.72
2022-11-05T02:55:16.027Z,96342.94
2022-11-05T02:57:42.367Z,96350.16
2022-11-05T03:00:08.695Z,96355.50
2022-11-05T03:02:35.173Z,96353.59
2022-11-05T03:05:01.574Z,96358.19
2022-11-05T03:07:27.890Z,96359.25
2022-11-05T03:09:54.215Z,96368.31
2022-11-05T03:12:20.534Z,96365.66
2022-11-05T03:14:46.855Z,96368.63
2022-11-05T03:17:13.174Z,96369.41
2022-11-05T03:19:39.499Z,96365.66
2022-11-05T03:22:05.827Z,96371.00
2022-11-05T03:24:32.150Z,96362.97
2022-11-05T03:26:58.453Z,96366.75
2022-11-05T03:29:24.777Z,96357.94
2022-11-05T03:31:51.111Z,96378.72
2022-11-05T03:34:17.443Z,96377.16
2022-11-05T03:36:43.776Z,96381.16
2022-11-05T03:39:10.115Z,96390.75
2022-11-05T03:41:36.438Z,96396.09
2022-11-05T03:44:02.759Z,96398.25
2022-11-05T03:46:29.074Z,96396.69
2022-11-05T03:48:55.448Z,96399.84
2022-11-05T03:51:21.830Z,96410.50
2022-11-05T03:53:48.138Z,96406.56
2022-11-05T03:56:14.454Z,96403.09
2022-11-05T03:58:40.766Z,96407.38
2022-11-05T04:01:07.085Z,96405.47
2022-11-05T04:03:33.418Z,96402.81
2022-11-05T04:05:59.755Z,96408.44
2022-11-05T04:08:26.086Z,96406.28
2022-11-05T04:10:52.413Z,96402.81
2022-11-05T04:13:18.746Z,96411.09
2022-11-05T04:15:45.072Z,96406.88
2022-11-05T04:18:11.387Z,96410.34
2022-11-05T04:20:37.697Z,96413.31
2022-11-05T04:23:04.011Z,96401.53
2022-11-05T04:25:30.332Z,96412.72
2022-11-05T04:27:56.660Z,96411.09
2022-11-05T04:30:22.975Z,96415.69
2022-11-05T04:32:49.290Z,96421.78
2022-11-05T04:35:15.622Z,96420.22
2022-11-05T04:37:41.936Z,96423.97
2022-11-05T04:40:08.257Z,96418.66
2022-11-05T04:42:34.591Z,96426.16
2022-11-05T04:45:00.915Z,96432.28
2022-11-05T04:47:27.270Z,96425.34
2022-11-05T04:49:53.586Z,96428.50
2022-11-05T04:52:19.906Z,96433.06
2022-11-05T04:54:46.214Z,96440.00
2022-11-05T04:57:12.530Z,96443.72
2022-11-05T04:59:38.859Z,96444.53
2022-11-05T05:02:05.232Z,96449.06
2022-11-05T05:04:31.607Z,96444.81
2022-11-05T05:06:57.918Z,96442.16
2022-11-05T05:09:24.249Z,96448.59
2022-11-05T05:11:50.566Z,96458.16
2022-11-05T05:14:16.876Z,96460.31
2022-11-05T05:16:43.185Z,96456.59
2022-11-05T05:19:09.506Z,96469.44
2022-11-05T05:21:35.823Z,96464.09
2022-11-05T05:24:02.146Z,96467.25
2022-11-05T05:26:28.465Z,96474.16
2022-11-05T05:28:54.786Z,96469.63
2022-11-05T05:31:21.105Z,96482.66
2022-11-05T05:33:47.441Z,96471.50
2022-11-05T05:36:13.758Z,96473.66
2022-11-05T05:38:40.062Z,96469.44
2022-11-05T05:41:06.392Z,96478.53
2022-11-05T05:43:32.715Z,96482.47
2022-11-05T05:45:59.092Z,96478.22
2022-11-05T05:48:25.427Z,96481.66
2022-11-05T05:50:51.758Z,96487.00
2022-11-05T05:53:18.087Z,96487.00
2022-11-05T05:55:44.397Z,96493.44
2022-11-05T05:58:10.706Z,96493.94
2022-11-05T06:00:37.058Z,96499.28
2022-11-05T06:03:03.445Z,96502.72
2022-11-05T06:05:29.842Z,96503.81
2022-11-05T06:07:56.167Z,96499.28
2022-11-05T06:10:22.528Z,96496.31
2022-11-05T06:12:48.866Z,96500.84
2022-11-05T06:15:15.178Z,96508.84
2022-11-05T06:17:41.953Z,96510.41
2022-11-05T06:20:08.281Z,96504.59
2022-11-05T06:22:34.602Z,96517.44
2022-11-05T06:25:00.934Z,96515.28
2022-11-05T06:27:27.254Z,96519.59
2022-11-05T06:29:53.606Z,96511.81
2022-11-05T06:32:19.937Z,96517.81
2022-11-05T06:34:46.454Z,96525.34
2022-11-05T06:37:12.822Z,96527.53
2022-11-05T06:39:39.154Z,96525.66
2022-11-05T06:42:17.989Z,96527.53
2022-11-05T06:44:45.219Z,96526.53
2022-11-05T06:47:11.545Z,96531.06
2022-11-05T06:49:37.874Z,96530.28
2022-11-05T06:52:04.199Z,96532.78
2022-11-05T06:54:30.718Z,96536.81
2022-11-05T06:56:57.037Z,96538.44
2022-11-05T06:59:23.365Z,96533.38
2022-11-05T07:01:49.753Z,96532.88
2022-11-05T07:04:16.103Z,96553.44
2022-11-05T07:06:42.440Z,96548.28
2022-11-05T07:09:08.765Z,96549.38
2022-11-05T07:11:35.089Z,96555.19
2022-11-05T07:14:01.425Z,96560.50
2022-11-05T07:16:27.758Z,96564.19
2022-11-05T07:18:54.085Z,96569.81
2022-11-05T07:21:20.418Z,96577.53
2022-11-05T07:23:46.753Z,96581.25
2022-11-05T07:26:13.068Z,96579.69
2022-11-05T07:28:39.386Z,96583.47
2022-11-05T07:31:05.709Z,96592.22
2022-11-05T07:33:36.370Z,96591.56
2022-11-05T07:36:03.099Z,96595.19
2022-11-05T07:38:29.422Z,96595.69
2022-11-05T07:40:55.735Z,96597.28
2022-11-05T07:43:22.075Z,96599.47
2022-11-05T07:45:48.394Z,96599.94
2022-11-05T07:48:14.718Z,96602.63
2022-11-05T07:50:41.054Z,96607.94
2022-11-05T07:53:07.388Z,96612.22
2022-11-05T07:55:33.735Z,96606.38
2022-11-05T07:58:00.054Z,96610.63
2022-11-05T08:00:26.426Z,96613.28
2022-11-05T08:02:52.995Z,96619.41
2022-11-05T08:05:19.487Z,96620.22
2022-11-05T08:07:45.807Z,96623.97
2022-11-05T08:10:12.130Z,96629.88
2022-11-05T08:12:38.462Z,96617.06
2022-11-05T08:15:04.793Z,96620.22
2022-11-05T08:17:31.123Z,96625.06
2022-11-05T08:19:57.454Z,96634.63
2022-11-05T08:22:23.779Z,96639.50
2022-11-05T08:24:50.102Z,96638.63
2022-11-05T08:27:16.431Z,96641.00
2022-11-05T08:29:42.758Z,96652.25
2022-11-05T08:32:09.099Z,96647.50
2022-11-05T08:34:35.456Z,96652.31
2022-11-05T08:37:01.789Z,96648.66
2022-11-05T08:39:28.146Z,96660.41
2022-11-05T08:41:54.485Z,96657.75
2022-11-05T08:44:20.810Z,96654.59
2022-11-05T08:46:47.156Z,96656.75
2022-11-05T08:49:13.494Z,96667.44
2022-11-05T08:51:39.827Z,96660.47
2022-11-05T08:54:06.170Z,96662.09
2022-11-05T08:56:32.508Z,96664.25
2022-11-05T08:58:58.855Z,96658.91
2022-11-05T09:01:25.269Z,96657.34
2022-11-05T09:03:51.650Z,96659.41
2022-11-05T09:06:17.981Z,96662.09
2022-11-05T09:08:44.307Z,96661.28
2022-11-05T09:11:10.627Z,96669.00
2022-11-05T09:13:36.968Z,96664.47
2022-11-05T09:16:03.294Z,96667.13
2022-11-05T09:18:29.623Z,96665.25
2022-11-05T09:20:55.956Z,96674.34
2022-11-05T09:23:22.300Z,96666.84
2022-11-05T09:25:48.633Z,96666.84
2022-11-05T09:28:17.188Z,96672.97
2022-11-05T09:30:43.822Z,96671.06
2022-11-05T09:33:10.528Z,96677.13
2022-11-05T09:35:37.083Z,96672.88
2022-11-05T09:38:03.424Z,96677.44
2022-11-05T09:40:29.770Z,96673.31
2022-11-05T09:42:56.113Z,96675.16
2022-11-05T09:45:22.443Z,96670.91
2022-11-05T09:47:48.762Z,96678.91
2022-11-05T09:50:15.087Z,96685.31
2022-11-05T09:52:41.419Z,96686.41
2022-11-05T09:55:07.742Z,96688.56
2022-11-05T09:57:34.079Z,96692.34
2022-11-05T10:00:00.535Z,96681.66
2022-11-05T10:02:26.942Z,96691.53
2022-11-05T10:04:53.394Z,96694.22
2022-11-05T10:07:19.788Z,96696.09
2022-11-05T10:09:46.102Z,96697.69
2022-11-05T10:12:12.440Z,96706.78
2022-11-05T10:14:38.798Z,96702.50
2022-11-05T10:17:05.141Z,96698.25
2022-11-05T10:19:31.463Z,96694.50
2022-11-05T10:22:06.550Z,96698.78
2022-11-05T10:24:33.354Z,96701.44
2022-11-05T10:26:59.685Z,96698.78
2022-11-05T10:29:26.058Z,96705.19
2022-11-05T10:31:52.412Z,96699.06
2022-11-05T10:34:18.779Z,96699.84
2022-11-05T10:36:45.105Z,96710.03
2022-11-05T10:39:11.425Z,96703.38
2022-11-05T10:41:37.746Z,96697.69
2022-11-05T10:44:04.078Z,96698.25
2022-11-05T10:46:30.411Z,96704.47
2022-11-05T10:48:56.741Z,96691.00
2022-11-05T10:51:23.066Z,96697.59
2022-11-05T10:53:49.400Z,96696.09
2022-11-05T10:56:15.748Z,96699.44
2022-11-05T10:58:42.080Z,96689.16
2022-11-05T11:01:08.502Z,96696.69
2022-11-05T11:03:34.869Z,96702.94
2022-11-05T11:06:01.203Z,96699.72
2022-11-05T11:08:27.538Z,96700.47
2022-11-05T11:10:53.869Z,96698.09
2022-11-05T11:13:20.203Z,96691.16
2022-11-05T11:15:46.534Z,96687.44
2022-11-05T11:18:12.859Z,96686.41
2022-11-05T11:20:39.184Z,96688.78
2022-11-05T11:23:05.523Z,96686.94
2022-11-05T11:25:31.853Z,96690.66
2022-11-05T11:27:58.185Z,96691.75
2022-11-05T11:30:24.515Z,96691.75
2022-11-05T11:32:50.835Z,96683.75
2022-11-05T11:35:17.174Z,96680.00
2022-11-05T11:37:43.533Z,96674.19
2022-11-05T11:40:10.226Z,96668.84
2022-11-05T11:42:36.655Z,96682.19
2022-11-05T11:45:03.006Z,96672.56
2022-11-05T11:47:29.359Z,96676.34
2022-11-05T11:49:55.693Z,96674.47
2022-11-05T11:52:22.019Z,96677.13
2022-11-05T11:54:48.353Z,96672.56
2022-11-05T11:57:15.274Z,96676.34
2022-11-05T12:00:07.066Z,96668.03
2022-11-05T12:02:28.014Z,96656.56
2022-11-05T12:04:54.383Z,96656.56
2022-11-05T12:07:20.717Z,96656.56
2022-11-05T12:09:47.052Z,96653.91
2022-11-05T12:12:13.371Z,96661.91
2022-11-05T12:14:45.132Z,96668.03
2022-11-05T12:17:12.690Z,96664.28
2022-11-05T12:19:39.020Z,96663.50
2022-11-05T12:22:05.336Z,96667.75
2022-11-05T12:24:31.656Z,96670.38
2022-11-05T12:26:57.993Z,96670.75
2022-11-05T12:29:24.321Z,96671.84
2022-11-05T12:31:50.666Z,96665.03
2022-11-05T12:34:16.975Z,96669.44
2022-11-05T12:36:43.302Z,96666.31
2022-11-05T12:39:09.631Z,96667.09
2022-11-05T12:41:35.948Z,96659.28
2022-11-05T12:44:02.262Z,96663.03
2022-11-05T12:46:28.590Z,96662.25
2022-11-05T12:48:54.915Z,96666.22
2022-11-05T12:51:21.246Z,96657.94
2022-11-05T12:53:47.568Z,96661.88
2022-11-05T12:56:13.885Z,96663.66
2022-11-05T12:58:40.214Z,96660.91
2022-11-05T13:01:06.559Z,96665.66
2022-11-05T13:03:32.926Z,96669.59
2022-11-05T13:06:04.633Z,96661.31
2022-11-05T13:08:32.287Z,96664.50
2022-11-05T13:10:58.614Z,96657.78
2022-11-05T13:13:24.950Z,96649.00
2022-11-05T13:15:51.269Z,96651.69
2022-11-05T13:18:17.598Z,96652.16
2022-11-05T13:20:43.910Z,96653.75
2022-11-05T13:23:10.526Z,96654.25
2022-11-05T13:25:37.013Z,96652.66
2022-11-05T13:28:03.350Z,96642.78
2022-11-05T13:30:29.683Z,96645.75
2022-11-05T13:32:56.017Z,96652.66
2022-11-05T13:35:22.367Z,96653.16
2022-11-05T13:37:48.719Z,96654.44
2022-11-05T13:40:15.067Z,96653.06
2022-11-05T13:42:41.399Z,96653.06
2022-11-05T13:45:07.749Z,96654.66
2022-11-05T13:47:34.063Z,96659.69
2022-11-05T13:50:00.394Z,96656.22
2022-11-05T13:52:26.718Z,96663.16
2022-11-05T13:54:53.053Z,96654.84
2022-11-05T13:57:19.387Z,96649.31
2022-11-05T13:59:45.704Z,96653.28
2022-11-05T14:02:12.108Z,96648.72
2022-11-05T14:04:38.516Z,96651.09
2022-11-05T14:07:04.842Z,96644.97
2022-11-05T14:09:31.172Z,96651.09
2022-11-05T14:11:57.499Z,96640.44
2022-11-05T14:14:23.839Z,96643.88
2022-11-05T14:16:50.158Z,96635.88
2022-11-05T14:19:16.483Z,96634.28
2022-11-05T14:21:42.802Z,96635.19
2022-11-05T14:24:09.146Z,96634.28
2022-11-05T14:26:35.477Z,96638.06
2022-11-05T14:29:01.805Z,96637.63
2022-11-05T14:31:47.357Z,96636.66
2022-11-05T14:34:14.416Z,96645.53
2022-11-05T14:36:40.774Z,96642.28
2022-11-05T14:39:07.083Z,96640.47
2022-11-05T14:41:33.391Z,96649.06
2022-11-05T14:43:59.728Z,96638.97
2022-11-05T14:46:26.071Z,96639.56
2022-11-05T14:48:52.398Z,96635.81
2022-11-05T14:51:18.722Z,96635.34
2022-11-05T14:53:45.050Z,96642.53
2022-11-05T14:56:11.387Z,96642.03
2022-11-05T14:58:37.713Z,96655.94
2022-11-05T15:01:04.109Z,96645.78
2022-11-05T15:03:30.522Z,96639.66
2022-11-05T15:05:56.863Z,96646.59
2022-11-05T15:08:23.181Z,96640.75
2022-11-05T15:10:49.508Z,96639.66
2022-11-05T15:13:15.847Z,96640.75
2022-11-05T15:15:42.183Z,96643.41
2022-11-05T15:18:08.514Z,96638.16
2022-11-05T15:20:39.764Z,96640.31
2022-11-05T15:23:06.611Z,96639.34
2022-11-05T15:25:32.925Z,96643.09
2022-11-05T15:27:59.250Z,96637.75
2022-11-05T15:30:25.578Z,96641.72
2022-11-05T15:32:51.910Z,96637.16
2022-11-05T15:35:18.245Z,96631.84
2022-11-05T15:37:50.300Z,96628.66
2022-11-05T15:40:18.843Z,96637.16
2022-11-05T15:42:45.171Z,96633.41
2022-11-05T15:45:11.487Z,96640.91
2022-11-05T15:47:37.813Z,96647.84
2022-11-05T15:50:06.507Z,96652.38
2022-11-05T15:52:35.014Z,96656.44
2022-11-05T15:55:01.348Z,96660.66
2022-11-05T15:57:27.907Z,96661.84
2022-11-05T15:59:54.282Z,96653.53
2022-11-05T16:02:20.667Z,96654.06
2022-11-05T16:04:47.051Z,96650.59
2022-11-05T16:07:13.378Z,96647.50
2022-11-05T16:09:39.706Z,96649.59
2022-11-05T16:12:06.031Z,96653.53
2022-11-05T16:14:32.376Z,96642.66
2022-11-05T16:16:58.703Z,96640.50
2022-11-05T16:19:25.034Z,96640.00
2022-11-05T16:21:51.373Z,96636.66
2022-11-05T16:24:17.689Z,96647.63
2022-11-05T16:29:30.338Z,96647.03
2022-11-05T16:31:56.667Z,96640.91
2022-11-05T16:34:23.002Z,96642.97
2022-11-05T16:36:49.422Z,96644.66
2022-11-05T16:39:15.785Z,96650.22
2022-11-05T16:41:42.548Z,96653.19
2022-11-05T16:44:08.894Z,96644.66
2022-11-05T16:46:35.261Z,96658.91
2022-11-05T16:49:01.597Z,96657.94
2022-11-05T16:51:27.922Z,96655.75
2022-11-05T16:53:54.256Z,96658.91
2022-11-05T16:56:20.594Z,96664.25
2022-11-05T16:58:46.925Z,96669.59
2022-11-05T17:01:13.344Z,96670.09
2022-11-05T17:03:39.718Z,96673.53
2022-11-05T17:06:06.042Z,96680.25
2022-11-05T17:08:32.380Z,96680.25
2022-11-05T17:10:58.701Z,96677.88
2022-11-05T17:13:25.036Z,96677.59
2022-11-05T17:15:51.373Z,96684.72
2022-11-05T17:18:19.216Z,96682.84
2022-11-05T17:20:45.830Z,96690.34
2022-11-05T17:23:12.420Z,96681.28
2022-11-05T17:25:38.992Z,96674.34
2022-11-05T17:28:05.330Z,96680.19
2022-11-05T17:30:31.657Z,96677.22
2022-11-05T17:32:58.058Z,96676.13
2022-11-05T17:35:24.462Z,96682.25
2022-11-05T17:37:50.787Z,96671.06
2022-11-05T17:40:17.110Z,96675.34
2022-11-05T17:42:43.430Z,96674.53
2022-11-05T17:45:09.788Z,96678.31
2022-11-05T17:47:37.012Z,96682.03
2022-11-05T17:50:03.367Z,96681.28
2022-11-05T17:52:29.695Z,96683.94
2022-11-05T17:54:56.023Z,96681.28
2022-11-05T17:57:22.362Z,96680.19
2022-11-05T17:59:48.713Z,96679.09
2022-11-05T18:02:15.143Z,96675.94
2022-11-05T18:04:41.550Z,96668.41
2022-11-05T18:07:07.883Z,96671.06
2022-11-05T18:09:34.197Z,96674.84
2022-11-05T18:12:00.519Z,96661.50
2022-11-05T18:14:26.843Z,96664.47
2022-11-05T18:16:53.178Z,96662.09
2022-11-05T18:19:19.520Z,96662.78
2022-11-05T18:21:45.863Z,96662.31
2022-11-05T18:24:12.199Z,96673.16
2022-11-05T18:26:38.535Z,96673.75
2022-11-05T18:29:04.855Z,96675.94
2022-11-05T18:31:31.184Z,96680.69
2022-11-05T18:33:57.501Z,96682.84
2022-11-05T18:36:23.826Z,96686.59
2022-11-05T18:38:50.152Z,96680.25
2022-11-05T18:41:16.479Z,96680.19
2022-11-05T18:43:42.811Z,96677.50
2022-11-05T18:46:12.930Z,96686.59
2022-11-05T18:48:45.763Z,96676.50
2022-11-05T18:51:12.098Z,96682.41
2022-11-05T18:53:38.429Z,96677.59
2022-11-05T18:56:04.754Z,96681.28
2022-11-05T18:58:31.082Z,96687.59
2022-11-05T19:01:00.171Z,96679.00
2022-11-05T19:03:28.879Z,96668.03
2022-11-05T19:05:55.238Z,96670.41
2022-11-05T19:08:21.566Z,96678.41
2022-11-05T19:10:47.890Z,96683.47
2022-11-05T19:13:14.239Z,96684.25
2022-11-05T19:15:40.558Z,96689.59
2022-11-05T19:18:06.890Z,96694.94
2022-11-05T19:20:37.647Z,96704.59
2022-11-05T19:23:04.317Z,96696.59
2022-11-05T19:25:30.654Z,96692.94
2022-11-05T19:27:56.993Z,96690.94
2022-11-05T19:30:23.338Z,96700.78
2022-11-05T19:32:49.684Z,96708.00
2022-11-05T19:35:16.024Z,96696.50
2022-11-05T19:37:42.358Z,96688.78
2022-11-05T19:40:08.695Z,96695.53
2022-11-05T19:42:35.021Z,96686.19
2022-11-05T19:45:22.975Z,96689.16
2022-11-05T19:47:47.663Z,96702.63
2022-11-05T19:50:13.998Z,96709.59
2022-11-05T19:52:40.335Z,96700.03
2022-11-05T19:55:11.869Z,96707.50
2022-11-05T19:57:38.530Z,96709.66
2022-11-05T20:00:04.855Z,96703.34
2022-11-05T20:02:31.363Z,96698.81
2022-11-05T20:04:57.819Z,96698.31
2022-11-05T20:07:24.156Z,96694.66
2022-11-05T20:09:50.482Z,96692.28
2022-11-05T20:12:16.810Z,96688.50
2022-11-05T20:14:43.160Z,96693.03
2022-11-05T20:17:09.478Z,96700.75
2022-11-05T20:19:35.811Z,96696.50
2022-11-05T20:22:02.148Z,96691.69
2022-11-05T20:24:28.483Z,96690.06
2022-11-05T20:26:54.819Z,96687.94
2022-11-05T20:29:21.155Z,96682.38
2022-11-05T20:31:47.475Z,96682.88
2022-11-05T20:34:13.796Z,96673.00
2022-11-05T20:36:40.131Z,96690.06
2022-11-05T20:39:06.453Z,96690.06
2022-11-05T20:41:32.778Z,96689.03
2022-11-05T20:43:59.103Z,96704.50
2022-11-05T20:46:25.434Z,96695.41
2022-11-05T20:48:51.780Z,96693.84
2022-11-05T20:51:18.093Z,96689.50
2022-11-05T20:53:44.423Z,96696.44
2022-11-05T20:56:10.783Z,96690.59
2022-11-05T20:58:37.133Z,96701.34
2022-11-05T21:01:03.466Z,96703.72
2022-11-05T21:03:29.789Z,96703.00
2022-11-05T21:05:56.120Z,96710.59
2022-11-05T21:08:22.450Z,96704.22
2022-11-05T21:10:51.400Z,96697.31
2022-11-05T21:13:17.921Z,96708.00
2022-11-05T21:15:44.247Z,96717.09
2022-11-05T21:18:10.840Z,96724.56
2022-11-05T21:20:37.351Z,96732.56
2022-11-05T21:23:03.669Z,96724.97
2022-11-05T21:25:29.990Z,96714.81
2022-11-05T21:27:56.312Z,96722.19
2022-11-05T21:30:22.631Z,96727.97
2022-11-05T21:32:48.945Z,96734.88
2022-11-05T21:35:15.266Z,96738.06
2022-11-05T21:37:41.595Z,96737.84
2022-11-05T21:40:07.924Z,96734.13
2022-11-05T21:42:34.250Z,96742.41
2022-11-05T21:45:00.856Z,96741.81
2022-11-05T21:47:27.240Z,96734.69
2022-11-05T21:49:53.573Z,96737.06
2022-11-05T21:52:19.902Z,96735.47
2022-11-05T21:54:46.259Z,96729.91
2022-11-05T21:57:12.585Z,96739.19
2022-11-05T21:59:38.923Z,96742.41
2022-11-05T22:02:05.375Z,96740.28
2022-11-05T22:04:31.802Z,96750.72
2022-11-05T22:06:58.134Z,96749.88
2022-11-05T22:09:24.461Z,96746.94
2022-11-05T22:11:50.789Z,96747.19
2022-11-05T22:14:17.118Z,96746.41
2022-11-05T22:16:43.444Z,96754.06
2022-11-05T22:19:09.774Z,96746.47
2022-11-05T22:21:36.114Z,96738.69
2022-11-05T22:24:02.455Z,96730.88
2022-11-05T22:26:28.799Z,96730.75
2022-11-05T22:28:55.126Z,96723.19
2022-11-05T22:31:21.452Z,96733.09
2022-11-05T22:33:47.786Z,96725.09
2022-11-05T22:36:14.127Z,96722.41
2022-11-05T22:38:40.482Z,96705.31
2022-11-05T22:41:06.807Z,96693.09
2022-11-05T22:43:33.141Z,96678.97
2022-11-05T22:45:59.468Z,96675.41
2022-11-05T22:48:25.792Z,96665.75
2022-11-05T22:50:52.121Z,96667.13
2022-11-05T22:53:18.443Z,96674.84
2022-11-05T22:55:44.775Z,96672.75
2022-11-05T22:58:11.355Z,96677.00
2022-11-05T23:00:37.856Z,96682.31
2022-11-05T23:03:04.483Z,96671.06
2022-11-05T23:05:30.926Z,96678.00
2022-11-05T23:07:57.251Z,96669.50
2022-11-05T23:10:23.573Z,96664.16
2022-11-05T23:12:49.893Z,96663.38
2022-11-05T23:15:16.213Z,96658.31
2022-11-05T23:17:43.134Z,96676.41
2022-11-05T23:20:09.454Z,96671.88
2022-11-05T23:22:35.779Z,96684.41
2022-11-05T23:25:02.097Z,96680.16
2022-11-05T23:27:28.429Z,96674.25
2022-11-05T23:29:54.767Z,96671.59
2022-11-05T23:32:21.090Z,96692.91
2022-11-05T23:34:47.404Z,96694.00
2022-11-05T23:37:13.733Z,96694.50
2022-11-05T23:39:42.841Z,96702.50
2022-11-05T23:42:09.407Z,96688.09
2022-11-05T23:44:35.736Z,96690.25
2022-11-05T23:47:02.068Z,96697.75
2022-11-05T23:49:28.392Z,96686.31
2022-11-05T23:51:54.724Z,96682.25
2022-11-05T23:54:21.051Z,96683.81
2022-11-05T23:56:47.388Z,96675.34
2022-11-05T23:59:13.707Z,96675.34
